createdAt,value
2019-06-26T00:11:04.882Z,8.98
2019-06-26T00:23:04.856Z,11.50
2019-06-26T00:35:04.792Z,11.30
2019-06-26T00:47:04.831Z,16.10
2019-06-26T00:59:04.873Z,10.40
2019-06-26T01:11:04.818Z,12.85
2019-06-26T01:23:04.852Z,11.12
2019-06-26T01:35:04.862Z,14.13
2019-06-26T01:47:04.821Z,12.18
2019-06-26T01:59:04.869Z,14.00
2019-06-26T02:11:04.864Z,15.55
2019-06-26T02:23:04.884Z,14.40
2019-06-26T02:35:09.371Z,12.80
2019-06-26T02:47:18.877Z,14.60
2019-06-26T02:59:04.829Z,15.60
2019-06-26T03:11:04.861Z,19.45
2019-06-26T03:23:04.809Z,17.48
2019-06-26T03:35:04.870Z,14.80
2019-06-26T03:47:04.851Z,14.10
2019-06-26T03:59:04.885Z,15.23
2019-06-26T04:11:04.878Z,15.13
2019-06-26T04:23:04.820Z,18.27
2019-06-26T04:35:04.854Z,19.87
2019-06-26T04:47:04.880Z,28.25
2019-06-26T04:59:04.797Z,37.25
2019-06-26T05:11:04.802Z,39.42
2019-06-26T05:23:04.879Z,39.13
2019-06-26T05:35:04.860Z,47.88
2019-06-26T05:47:07.071Z,44.00
2019-06-26T05:59:04.791Z,59.83
2019-06-26T06:11:05.419Z,48.52
2019-06-26T06:23:04.802Z,57.03
2019-06-26T06:35:04.828Z,59.55
2019-06-26T06:47:06.677Z,55.05
2019-06-26T06:59:04.872Z,54.95
2019-06-26T07:11:04.861Z,54.35
2019-06-26T07:23:04.827Z,51.77
2019-06-26T07:35:04.872Z,48.83
2019-06-26T07:47:12.742Z,46.60
2019-06-26T07:59:04.856Z,37.88
2019-06-26T08:11:06.508Z,37.60
2019-06-26T08:23:04.954Z,40.73
2019-06-26T08:35:04.903Z,34.00
2019-06-26T08:47:04.866Z,35.98
2019-06-26T08:59:04.873Z,35.45
2019-06-26T09:11:04.848Z,28.10
2019-06-26T09:23:04.824Z,35.38
2019-06-26T09:35:04.847Z,30.08
2019-06-26T09:47:04.830Z,25.75
2019-06-26T09:59:04.779Z,25.97
2019-06-26T10:11:04.852Z,22.45
2019-06-26T10:23:05.084Z,22.50
2019-06-26T10:35:04.949Z,22.10
2019-06-26T10:47:04.854Z,18.20
2019-06-26T10:59:04.804Z,19.65
2019-06-26T11:11:04.942Z,17.07
2019-06-26T11:23:04.875Z,18.73
2019-06-26T11:35:04.864Z,18.70
2019-06-26T11:47:04.961Z,17.92
2019-06-26T11:59:04.771Z,18.57
2019-06-26T12:11:04.834Z,17.45
2019-06-26T12:23:04.827Z,18.30
2019-06-26T12:35:04.798Z,18.75
2019-06-26T12:47:04.850Z,18.37
2019-06-26T12:59:04.856Z,17.17
2019-06-26T13:11:04.852Z,19.87
2019-06-26T13:23:04.877Z,23.22
2019-06-26T13:35:04.805Z,19.42
2019-06-26T13:47:04.837Z,22.48
2019-06-26T13:59:07.364Z,21.10
2019-06-26T14:11:07.453Z,21.68
2019-06-26T14:23:04.847Z,22.10
2019-06-26T14:35:04.876Z,20.27
2019-06-26T14:47:04.889Z,18.48
2019-06-26T14:59:04.836Z,17.05
2019-06-26T15:11:04.805Z,16.42
2019-06-26T15:23:04.834Z,17.17
2019-06-26T15:35:04.967Z,17.73
2019-06-26T15:47:04.818Z,16.30
2019-06-26T15:59:04.832Z,20.82
2019-06-26T16:11:04.849Z,18.75
2019-06-26T16:23:04.785Z,17.73
2019-06-26T16:35:05.322Z,19.10
2019-06-26T16:47:04.883Z,19.62
2019-06-26T16:59:04.825Z,17.98
2019-06-26T17:11:04.841Z,18.10
2019-06-26T17:23:06.265Z,18.48
2019-06-26T17:35:04.830Z,17.95
2019-06-26T17:47:05.572Z,22.35
2019-06-26T17:59:04.820Z,20.88
2019-06-26T18:11:04.848Z,20.37
2019-06-26T18:23:07.374Z,20.60
2019-06-26T18:35:05.337Z,20.55
2019-06-26T18:47:04.832Z,23.40
2019-06-26T18:59:04.916Z,19.62
2019-06-26T19:11:04.853Z,23.15
2019-06-26T19:23:04.840Z,23.85
2019-06-26T19:35:18.213Z,19.87
2019-06-26T19:47:04.871Z,20.88
2019-06-26T19:59:04.881Z,22.02
2019-06-26T20:11:05.302Z,22.13
2019-06-26T20:23:04.814Z,26.57
2019-06-26T20:35:04.839Z,28.77
2019-06-26T20:47:04.892Z,24.30
2019-06-26T20:59:05.260Z,26.90
2019-06-26T21:11:04.857Z,25.17
2019-06-26T21:23:17.455Z,25.52
2019-06-26T21:35:04.856Z,26.12
2019-06-26T21:47:05.178Z,25.40
2019-06-26T21:59:04.835Z,27.60
2019-06-26T22:11:04.863Z,23.98
2019-06-26T22:23:04.819Z,26.10
2019-06-26T22:35:04.810Z,23.75
2019-06-26T22:47:04.772Z,25.17
2019-06-26T22:59:04.862Z,23.30
2019-06-26T23:11:04.851Z,23.12
2019-06-26T23:23:04.840Z,24.25
2019-06-26T23:35:04.900Z,21.62
2019-06-26T23:47:04.796Z,22.20
2019-06-26T23:59:04.797Z,22.90
